createdAt,value
2024-02-13T00:00:20.011Z,982.01
2024-02-13T00:01:20.037Z,982.11
2024-02-13T00:02:20.033Z,982.11
2024-02-13T00:03:20.033Z,982.11
2024-02-13T00:04:19.933Z,982.18
2024-02-13T00:05:19.960Z,982.14
2024-02-13T00:06:19.938Z,982.22
2024-02-13T00:07:19.932Z,982.24
2024-02-13T00:08:20.476Z,982.26
2024-02-13T00:09:19.967Z,982.25
2024-02-13T00:10:19.874Z,982.25
2024-02-13T00:11:19.976Z,982.28
2024-02-13T00:12:19.902Z,982.33
2024-02-13T00:13:19.899Z,982.30
2024-02-13T00:14:19.876Z,982.26
2024-02-13T00:15:20.044Z,982.35
2024-02-13T00:16:19.848Z,982.29
2024-02-13T00:17:19.852Z,982.37
2024-02-13T00:18:19.890Z,982.34
2024-02-13T00:19:19.871Z,982.32
2024-02-13T00:20:19.822Z,982.46
2024-02-13T00:21:19.764Z,982.39
2024-02-13T00:22:19.762Z,982.40
2024-02-13T00:23:19.808Z,982.43
2024-02-13T00:24:19.753Z,982.45
2024-02-13T00:25:19.853Z,982.50
2024-02-13T00:26:19.752Z,982.53
2024-02-13T00:27:19.711Z,982.51
2024-02-13T00:28:19.697Z,982.51
2024-02-13T00:29:19.693Z,982.55
2024-02-13T00:30:19.773Z,982.57
2024-02-13T00:31:19.675Z,982.60
2024-02-13T00:32:19.681Z,982.64
2024-02-13T00:33:19.794Z,982.72
2024-02-13T00:34:19.666Z,982.63
2024-02-13T00:35:19.629Z,982.70
2024-02-13T00:36:19.626Z,982.71
2024-02-13T00:37:19.692Z,982.69
2024-02-13T00:38:19.585Z,982.68
2024-02-13T00:39:19.624Z,982.70
2024-02-13T00:40:19.574Z,982.77
2024-02-13T00:41:19.577Z,982.80
2024-02-13T00:42:19.562Z,982.79
2024-02-13T00:43:19.551Z,982.83
2024-02-13T00:44:19.536Z,982.83
2024-02-13T00:45:19.549Z,982.87
2024-02-13T00:46:19.530Z,982.87
2024-02-13T00:47:19.953Z,982.87
2024-02-13T00:48:19.679Z,982.91
2024-02-13T00:49:19.523Z,982.92
2024-02-13T00:50:19.538Z,982.91
2024-02-13T00:51:19.449Z,982.95
2024-02-13T00:52:19.446Z,982.98
2024-02-13T00:53:19.466Z,982.93
2024-02-13T00:54:19.400Z,982.97
2024-02-13T00:55:19.421Z,983.04
2024-02-13T00:56:19.435Z,982.98
2024-02-13T00:57:19.375Z,983.05
2024-02-13T00:58:19.419Z,983.03
2024-02-13T00:59:19.443Z,983.08
2024-02-13T01:00:19.402Z,983.09
2024-02-13T01:01:19.451Z,983.08
2024-02-13T01:02:19.399Z,983.13
2024-02-13T01:03:19.336Z,983.14
2024-02-13T01:04:19.428Z,983.19
2024-02-13T01:05:19.319Z,983.22
2024-02-13T01:06:19.320Z,983.22
2024-02-13T01:07:19.305Z,983.29
2024-02-13T01:08:19.322Z,983.19
2024-02-13T01:09:19.263Z,983.28
2024-02-13T01:10:19.221Z,983.26
2024-02-13T01:11:19.465Z,983.34
2024-02-13T01:12:19.204Z,983.31
2024-02-13T01:13:19.248Z,983.34
2024-02-13T01:14:19.310Z,983.38
2024-02-13T01:15:19.194Z,983.36
2024-02-13T01:16:19.188Z,983.44
2024-02-13T01:17:19.285Z,983.39
2024-02-13T01:18:19.410Z,983.37
2024-02-13T01:19:19.216Z,983.45
2024-02-13T01:20:19.193Z,983.48
2024-02-13T01:21:19.128Z,983.42
2024-02-13T01:22:19.135Z,983.48
2024-02-13T01:23:19.146Z,983.50
2024-02-13T01:24:19.104Z,983.52
2024-02-13T01:25:19.105Z,983.48
2024-02-13T01:26:19.117Z,983.53
2024-02-13T01:27:19.071Z,983.51
2024-02-13T01:28:19.098Z,983.56
2024-02-13T01:29:19.064Z,983.60
2024-02-13T01:30:19.059Z,983.60
2024-02-13T01:31:19.005Z,983.62
2024-02-13T01:32:19.080Z,983.65
2024-02-13T01:33:19.213Z,983.60
2024-02-13T01:34:19.036Z,983.68
2024-02-13T01:35:18.986Z,983.65
2024-02-13T01:36:18.994Z,983.66
2024-02-13T01:37:19.032Z,983.67
2024-02-13T01:38:18.963Z,983.70
2024-02-13T01:39:18.964Z,983.74
2024-02-13T01:40:19.071Z,983.69
2024-02-13T01:41:19.011Z,983.68
2024-02-13T01:42:18.921Z,983.73
2024-02-13T01:43:18.885Z,983.71
2024-02-13T01:44:18.977Z,983.72
2024-02-13T01:45:18.927Z,983.75
2024-02-13T01:46:18.838Z,983.70
2024-02-13T01:47:18.946Z,983.72
2024-02-13T01:48:19.143Z,983.78
2024-02-13T01:49:18.939Z,983.72
2024-02-13T01:50:19.011Z,983.78
2024-02-13T01:51:18.828Z,983.80
2024-02-13T01:52:18.828Z,983.77
2024-02-13T01:53:18.805Z,983.76
2024-02-13T01:54:18.752Z,983.78
2024-02-13T01:55:18.788Z,983.77
2024-02-13T01:56:18.800Z,983.80
2024-02-13T01:57:18.847Z,983.79
2024-02-13T01:58:18.752Z,983.75
2024-02-13T01:59:18.818Z,983.80
2024-02-13T02:00:18.735Z,983.80
2024-02-13T02:01:18.736Z,983.86
2024-02-13T02:02:18.807Z,983.93
2024-02-13T02:03:18.756Z,983.92
2024-02-13T02:04:18.784Z,983.86
2024-02-13T02:05:18.721Z,983.90
2024-02-13T02:06:18.774Z,983.95
2024-02-13T02:07:18.682Z,983.97
2024-02-13T02:08:18.675Z,984.02
2024-02-13T02:09:18.600Z,984.01
2024-02-13T02:10:18.619Z,983.97
2024-02-13T02:11:18.640Z,983.94
2024-02-13T02:12:18.693Z,983.98
2024-02-13T02:13:18.570Z,983.99
2024-02-13T02:14:18.619Z,984.02
2024-02-13T02:15:18.574Z,984.03
2024-02-13T02:16:18.524Z,983.96
2024-02-13T02:17:18.669Z,984.04
2024-02-13T02:18:18.655Z,984.05
2024-02-13T02:19:18.605Z,984.06
2024-02-13T02:20:18.568Z,984.04
2024-02-13T02:21:18.471Z,984.02
2024-02-13T02:22:18.448Z,984.06
2024-02-13T02:23:18.486Z,984.01
2024-02-13T02:24:18.456Z,984.05
2024-02-13T02:25:18.425Z,984.00
2024-02-13T02:26:18.513Z,984.00
2024-02-13T02:27:18.443Z,983.99
2024-02-13T02:28:18.418Z,984.01
2024-02-13T02:29:18.447Z,984.00
2024-02-13T02:30:18.428Z,984.04
2024-02-13T02:31:18.399Z,984.00
2024-02-13T02:32:18.373Z,984.03
2024-02-13T02:33:18.444Z,984.06
2024-02-13T02:34:18.387Z,984.04
2024-02-13T02:35:18.707Z,984.06
2024-02-13T02:36:18.329Z,984.04
2024-02-13T02:37:18.290Z,984.10
2024-02-13T02:38:18.343Z,984.15
2024-02-13T02:39:18.283Z,984.13
2024-02-13T02:40:18.314Z,984.15
2024-02-13T02:41:18.274Z,984.16
2024-02-13T02:42:18.265Z,984.08
2024-02-13T02:43:18.314Z,984.16
2024-02-13T02:44:18.312Z,984.30
2024-02-13T02:45:18.226Z,984.24
2024-02-13T02:46:18.224Z,984.22
2024-02-13T02:47:18.215Z,984.26
2024-02-13T02:48:18.530Z,984.25
2024-02-13T02:49:18.228Z,984.25
2024-02-13T02:50:18.205Z,984.29
2024-02-13T02:51:18.140Z,984.31
2024-02-13T02:52:18.134Z,984.30
2024-02-13T02:53:20.294Z,984.25
2024-02-13T02:54:18.117Z,984.25
2024-02-13T02:55:18.125Z,984.21
2024-02-13T02:56:18.132Z,984.26
2024-02-13T02:57:18.079Z,984.20
2024-02-13T02:58:18.057Z,984.30
2024-02-13T02:59:18.065Z,984.35
2024-02-13T03:00:18.054Z,984.30
2024-02-13T03:01:18.049Z,984.31
2024-02-13T03:02:18.042Z,984.35
2024-02-13T03:03:18.060Z,984.30
2024-02-13T03:04:17.997Z,984.34
2024-02-13T03:05:18.170Z,984.39
2024-02-13T03:06:18.155Z,984.39
2024-02-13T03:07:17.968Z,984.41
2024-02-13T03:08:18.003Z,984.43
2024-02-13T03:09:17.992Z,984.41
2024-02-13T03:10:17.942Z,984.41
2024-02-13T03:11:17.954Z,984.45
2024-02-13T03:12:17.907Z,984.47
2024-02-13T03:13:17.925Z,984.50
2024-02-13T03:14:17.960Z,984.53
2024-02-13T03:15:17.892Z,984.52
2024-02-13T03:16:17.888Z,984.47
2024-02-13T03:17:17.877Z,984.51
2024-02-13T03:18:17.951Z,984.46
2024-02-13T03:19:17.900Z,984.52
2024-02-13T03:20:17.938Z,984.49
2024-02-13T03:21:17.841Z,984.50
2024-02-13T03:22:17.810Z,984.54
2024-02-13T03:23:17.890Z,984.52
2024-02-13T03:24:17.786Z,984.53
2024-02-13T03:25:17.790Z,984.54
2024-02-13T03:26:17.797Z,984.57
2024-02-13T03:27:17.805Z,984.59
2024-02-13T03:28:17.755Z,984.58
2024-02-13T03:29:17.764Z,984.57
2024-02-13T03:30:17.740Z,984.60
2024-02-13T03:31:17.724Z,984.58
2024-02-13T03:32:17.761Z,984.62
2024-02-13T03:33:17.817Z,984.59
2024-02-13T03:34:17.772Z,984.61
2024-02-13T03:35:17.742Z,984.58
2024-02-13T03:36:17.683Z,984.64
2024-02-13T03:37:17.649Z,984.60
2024-02-13T03:38:17.655Z,984.61
2024-02-13T03:39:17.660Z,984.61
2024-02-13T03:40:17.707Z,984.60
2024-02-13T03:41:17.781Z,984.76
2024-02-13T03:42:17.856Z,984.72
2024-02-13T03:43:17.578Z,984.73
2024-02-13T03:44:17.595Z,984.75
2024-02-13T03:45:17.570Z,984.76
2024-02-13T03:46:17.535Z,984.76
2024-02-13T03:47:17.597Z,984.76
2024-02-13T03:48:17.708Z,984.74
2024-02-13T03:49:17.552Z,984.72
2024-02-13T03:50:17.903Z,984.75
2024-02-13T03:51:17.493Z,984.78
2024-02-13T03:52:17.490Z,984.78
2024-02-13T03:53:17.510Z,984.82
2024-02-13T03:54:17.458Z,984.77
2024-02-13T03:55:17.461Z,984.80
2024-02-13T03:56:17.482Z,984.82
2024-02-13T03:57:17.431Z,984.82
2024-02-13T03:58:17.417Z,984.77
2024-02-13T03:59:17.443Z,984.82
2024-02-13T04:00:17.400Z,984.77
2024-02-13T04:01:17.416Z,984.72
2024-02-13T04:02:17.402Z,984.68
2024-02-13T04:03:17.366Z,984.73
2024-02-13T04:04:17.370Z,984.73
2024-02-13T04:05:17.423Z,984.74
2024-02-13T04:06:17.415Z,984.77
2024-02-13T04:07:17.352Z,984.84
2024-02-13T04:08:17.344Z,984.85
2024-02-13T04:09:17.320Z,984.83
2024-02-13T04:10:17.286Z,984.82
2024-02-13T04:11:17.312Z,984.81
2024-02-13T04:12:17.279Z,984.85
2024-02-13T04:13:17.266Z,984.84
2024-02-13T04:14:17.282Z,984.85
2024-02-13T04:15:17.261Z,984.81
2024-02-13T04:16:17.220Z,984.89
2024-02-13T04:17:17.243Z,984.85
2024-02-13T04:18:17.265Z,984.84
2024-02-13T04:19:17.210Z,984.85
2024-02-13T04:20:17.243Z,984.87
2024-02-13T04:21:17.190Z,984.84
2024-02-13T04:22:17.166Z,984.83
2024-02-13T04:23:17.180Z,984.86
2024-02-13T04:24:17.136Z,984.91
2024-02-13T04:25:17.154Z,984.95
2024-02-13T04:26:25.602Z,984.98
2024-02-13T04:27:18.240Z,984.88
2024-02-13T04:28:17.134Z,984.97
2024-02-13T04:29:17.119Z,984.90
2024-02-13T04:30:17.095Z,984.91
2024-02-13T04:31:17.070Z,985.01
2024-02-13T04:32:17.105Z,984.99
2024-02-13T04:33:17.221Z,985.00
2024-02-13T04:34:17.183Z,984.98
2024-02-13T04:35:17.103Z,985.03
2024-02-13T04:36:17.017Z,985.07
2024-02-13T04:37:17.004Z,985.13
2024-02-13T04:38:17.033Z,985.11
2024-02-13T04:39:16.988Z,985.07
2024-02-13T04:40:16.985Z,985.09
2024-02-13T04:41:16.987Z,985.14
2024-02-13T04:42:16.947Z,985.15
2024-02-13T04:43:16.947Z,985.16
2024-02-13T04:44:16.963Z,985.21
2024-02-13T04:45:16.968Z,985.16
2024-02-13T04:46:16.988Z,985.17
2024-02-13T04:47:16.951Z,985.13
2024-02-13T04:48:17.047Z,985.14
2024-02-13T04:49:16.961Z,985.19
2024-02-13T04:50:18.807Z,985.18
2024-02-13T04:51:16.888Z,985.22
2024-02-13T04:52:16.843Z,985.25
2024-02-13T04:53:16.880Z,985.21
2024-02-13T04:54:16.837Z,985.21
2024-02-13T04:55:16.823Z,985.24
2024-02-13T04:56:17.207Z,985.26
2024-02-13T04:57:16.787Z,985.24
2024-02-13T04:58:16.776Z,985.28
2024-02-13T04:59:16.810Z,985.22
2024-02-13T05:00:16.768Z,985.28
2024-02-13T05:01:16.807Z,985.21
2024-02-13T05:02:16.832Z,985.27
2024-02-13T05:03:16.727Z,985.29
2024-02-13T05:04:17.118Z,985.24
2024-02-13T05:05:16.874Z,985.31
2024-02-13T05:06:16.793Z,985.25
2024-02-13T05:07:16.709Z,985.28
2024-02-13T05:08:16.691Z,985.28
2024-02-13T05:09:16.786Z,985.26
2024-02-13T05:10:16.640Z,985.30
2024-02-13T05:11:16.704Z,985.21
2024-02-13T05:12:16.645Z,985.23
2024-02-13T05:13:16.611Z,985.24
2024-02-13T05:14:16.631Z,985.22
2024-02-13T05:15:16.599Z,985.24
2024-02-13T05:16:16.576Z,985.28
2024-02-13T05:17:16.621Z,985.26
2024-02-13T05:18:17.100Z,985.27
2024-02-13T05:19:16.746Z,985.33
2024-02-13T05:20:16.580Z,985.22
2024-02-13T05:21:16.544Z,985.24
2024-02-13T05:22:16.535Z,985.21
2024-02-13T05:23:16.542Z,985.26
2024-02-13T05:24:16.521Z,985.27
2024-02-13T05:25:16.488Z,985.27
2024-02-13T05:26:16.566Z,985.26
2024-02-13T05:27:16.502Z,985.26
2024-02-13T05:28:16.450Z,985.22
2024-02-13T05:29:16.491Z,985.23
2024-02-13T05:30:16.445Z,985.26
2024-02-13T05:31:16.425Z,985.32
2024-02-13T05:32:16.481Z,985.26
2024-02-13T05:33:16.524Z,985.18
2024-02-13T05:34:16.477Z,985.22
2024-02-13T05:35:16.467Z,985.18
2024-02-13T05:36:16.363Z,985.14
2024-02-13T05:37:16.393Z,985.09
2024-02-13T05:38:16.392Z,985.13
2024-02-13T05:39:16.345Z,985.22
2024-02-13T05:40:16.336Z,985.09
2024-02-13T05:41:16.350Z,985.19
2024-02-13T05:42:16.301Z,985.18
2024-02-13T05:43:16.296Z,985.17
2024-02-13T05:44:16.314Z,985.30
2024-02-13T05:45:16.282Z,985.31
2024-02-13T05:46:16.258Z,985.34
2024-02-13T05:47:16.367Z,985.23
2024-02-13T05:48:16.406Z,985.32
2024-02-13T05:49:16.303Z,985.28
2024-02-13T05:50:16.242Z,985.29
2024-02-13T05:51:16.333Z,985.23
2024-02-13T05:52:16.209Z,985.23
2024-02-13T05:53:16.227Z,985.21
2024-02-13T05:54:16.259Z,985.22
2024-02-13T05:55:16.169Z,985.18
2024-02-13T05:56:23.388Z,985.27
2024-02-13T05:57:17.162Z,985.23
2024-02-13T05:58:16.146Z,985.23
2024-02-13T05:59:16.194Z,985.30
2024-02-13T06:00:16.631Z,985.31
2024-02-13T06:01:16.156Z,985.32
2024-02-13T06:02:16.115Z,985.35
2024-02-13T06:03:16.138Z,985.36
2024-02-13T06:04:16.076Z,985.34
2024-02-13T06:05:16.074Z,985.31
2024-02-13T06:06:16.209Z,985.37
2024-02-13T06:07:16.108Z,985.48
2024-02-13T06:08:16.050Z,985.47
2024-02-13T06:09:16.020Z,985.51
2024-02-13T06:10:16.016Z,985.51
2024-02-13T06:11:16.199Z,985.54
2024-02-13T06:12:16.174Z,985.52
2024-02-13T06:13:16.049Z,985.58
2024-02-13T06:14:15.972Z,985.50
2024-02-13T06:15:15.954Z,985.52
2024-02-13T06:16:15.940Z,985.49
2024-02-13T06:17:16.019Z,985.57
2024-02-13T06:18:16.073Z,985.59
2024-02-13T06:19:16.008Z,985.62
2024-02-13T06:20:15.953Z,985.60
2024-02-13T06:21:15.883Z,985.59
2024-02-13T06:22:15.891Z,985.63
2024-02-13T06:23:15.902Z,985.52
2024-02-13T06:24:15.855Z,985.56
2024-02-13T06:25:15.834Z,985.66
2024-02-13T06:26:15.863Z,985.66
2024-02-13T06:27:15.820Z,985.72
2024-02-13T06:28:15.812Z,985.78
2024-02-13T06:29:15.815Z,985.78
2024-02-13T06:30:15.792Z,985.76
2024-02-13T06:31:15.824Z,985.73
2024-02-13T06:32:15.809Z,985.81
2024-02-13T06:33:15.943Z,985.79
2024-02-13T06:34:15.823Z,985.82
2024-02-13T06:35:15.823Z,985.78
2024-02-13T06:36:15.753Z,985.82
2024-02-13T06:37:15.712Z,985.80
2024-02-13T06:38:15.755Z,985.84
2024-02-13T06:39:15.715Z,985.86
2024-02-13T06:40:15.702Z,985.86
2024-02-13T06:41:15.713Z,985.88
2024-02-13T06:42:15.675Z,985.83
2024-02-13T06:43:15.682Z,985.87
2024-02-13T06:44:15.656Z,985.82
2024-02-13T06:45:15.636Z,985.91
2024-02-13T06:46:15.624Z,985.91
2024-02-13T06:47:15.639Z,985.98
2024-02-13T06:48:16.048Z,986.03
2024-02-13T06:49:15.768Z,986.09
2024-02-13T06:50:15.648Z,986.06
2024-02-13T06:51:15.620Z,986.03
2024-02-13T06:52:15.616Z,986.06
2024-02-13T06:53:15.626Z,986.08
2024-02-13T06:54:15.642Z,986.11
2024-02-13T06:55:15.587Z,986.00
2024-02-13T06:56:15.546Z,986.09
2024-02-13T06:57:15.512Z,986.02
2024-02-13T06:58:15.497Z,986.08
2024-02-13T06:59:15.502Z,986.07
2024-02-13T07:00:15.595Z,986.17
2024-02-13T07:01:15.506Z,986.18
2024-02-13T07:02:16.563Z,986.24
2024-02-13T07:03:15.437Z,986.21
2024-02-13T07:04:17.173Z,986.19
2024-02-13T07:05:16.116Z,986.22
2024-02-13T07:06:16.332Z,986.18
2024-02-13T07:07:25.813Z,986.24
2024-02-13T07:08:17.217Z,986.24
2024-02-13T07:09:15.693Z,986.28
2024-02-13T07:10:17.273Z,986.31
2024-02-13T07:11:15.400Z,986.26
2024-02-13T07:12:15.729Z,986.27
2024-02-13T07:13:15.357Z,986.29
2024-02-13T07:14:16.132Z,986.29
2024-02-13T07:15:15.696Z,986.34
2024-02-13T07:16:15.333Z,986.32
2024-02-13T07:17:15.383Z,986.32
2024-02-13T07:18:15.374Z,986.32
2024-02-13T07:19:15.372Z,986.37
2024-02-13T07:20:15.631Z,986.32
2024-02-13T07:21:15.643Z,986.33
2024-02-13T07:22:15.346Z,986.31
2024-02-13T07:23:15.305Z,986.34
2024-02-13T07:24:15.233Z,986.34
2024-02-13T07:25:15.215Z,986.41
2024-02-13T07:26:15.401Z,986.33
2024-02-13T07:27:15.191Z,986.37
2024-02-13T07:28:15.899Z,986.46
2024-02-13T07:29:15.202Z,986.39
2024-02-13T07:30:16.101Z,986.40
2024-02-13T07:31:15.446Z,986.41
2024-02-13T07:32:15.225Z,986.38
2024-02-13T07:33:15.254Z,986.42
2024-02-13T07:34:15.226Z,986.46
2024-02-13T07:35:15.134Z,986.47
2024-02-13T07:36:15.150Z,986.43
2024-02-13T07:37:15.071Z,986.47
2024-02-13T07:38:15.135Z,986.46
2024-02-13T07:39:15.046Z,986.56
2024-02-13T07:40:15.057Z,986.54
2024-02-13T07:41:15.078Z,986.51
2024-02-13T07:42:15.426Z,986.45
2024-02-13T07:43:15.376Z,986.51
2024-02-13T07:44:15.680Z,986.50
2024-02-13T07:45:15.171Z,986.53
2024-02-13T07:46:15.418Z,986.48
2024-02-13T07:47:15.337Z,986.49
2024-02-13T07:48:15.300Z,986.53
2024-02-13T07:49:15.274Z,986.58
2024-02-13T07:50:15.400Z,986.60
2024-02-13T07:51:15.258Z,986.62
2024-02-13T07:52:15.723Z,986.59
2024-02-13T07:53:15.280Z,986.67
2024-02-13T07:54:15.303Z,986.58
2024-02-13T07:55:14.870Z,986.55
2024-02-13T07:56:15.476Z,986.56
2024-02-13T07:57:15.339Z,986.62
2024-02-13T07:58:14.932Z,986.56
2024-02-13T07:59:14.883Z,986.58
2024-02-13T08:00:15.229Z,986.61
2024-02-13T08:01:16.291Z,986.59
2024-02-13T08:02:15.601Z,986.56
2024-02-13T08:03:15.180Z,986.63
2024-02-13T08:04:15.373Z,986.60
2024-02-13T08:05:15.022Z,986.68
2024-02-13T08:06:14.865Z,986.61
2024-02-13T08:07:14.951Z,986.62
2024-02-13T08:08:15.126Z,986.61
2024-02-13T08:09:14.722Z,986.60
2024-02-13T08:10:15.065Z,986.54
2024-02-13T08:11:15.081Z,986.60
2024-02-13T08:12:14.865Z,986.59
2024-02-13T08:13:14.918Z,986.58
2024-02-13T08:14:15.610Z,986.60
2024-02-13T08:15:14.899Z,986.59
2024-02-13T08:16:14.908Z,986.56
2024-02-13T08:17:15.058Z,986.58
2024-02-13T08:18:14.874Z,986.62
2024-02-13T08:19:14.695Z,986.60
2024-02-13T08:20:15.052Z,986.64
2024-02-13T08:21:15.324Z,986.69
2024-02-13T08:22:15.096Z,986.69
2024-02-13T08:23:15.624Z,986.72
2024-02-13T08:24:14.897Z,986.74
2024-02-13T08:25:17.384Z,986.76
2024-02-13T08:26:15.187Z,986.70
2024-02-13T08:27:15.258Z,986.77
2024-02-13T08:28:14.565Z,986.72
2024-02-13T08:29:14.739Z,986.75
2024-02-13T08:30:14.530Z,986.72
2024-02-13T08:31:15.214Z,986.71
2024-02-13T08:32:14.679Z,986.69
2024-02-13T08:33:14.831Z,986.78
2024-02-13T08:34:14.714Z,986.80
2024-02-13T08:35:14.688Z,986.81
2024-02-13T08:36:14.490Z,986.82
2024-02-13T08:37:14.474Z,986.83
2024-02-13T08:38:14.462Z,986.70
2024-02-13T08:39:14.648Z,986.84
2024-02-13T08:40:14.468Z,986.84
2024-02-13T08:41:14.409Z,986.78
2024-02-13T08:42:14.420Z,986.81
2024-02-13T08:43:14.377Z,986.80
2024-02-13T08:44:14.412Z,986.76
2024-02-13T08:45:14.343Z,986.80
2024-02-13T08:46:14.361Z,986.78
2024-02-13T08:47:14.392Z,986.79
2024-02-13T08:48:14.533Z,986.83
2024-02-13T08:49:15.142Z,986.80
2024-02-13T08:50:14.767Z,986.87
2024-02-13T08:51:15.335Z,986.77
2024-02-13T08:52:14.298Z,986.78
2024-02-13T08:53:14.305Z,986.80
2024-02-13T08:54:14.521Z,986.85
2024-02-13T08:55:14.589Z,986.78
2024-02-13T08:56:14.296Z,986.85
2024-02-13T08:57:14.231Z,986.87
2024-02-13T08:58:14.230Z,986.88
2024-02-13T08:59:14.231Z,986.89
2024-02-13T09:00:14.246Z,986.85
2024-02-13T09:01:14.922Z,986.89
2024-02-13T09:02:14.423Z,986.89
2024-02-13T09:03:14.858Z,986.83
2024-02-13T09:04:14.163Z,986.88
2024-02-13T09:05:15.015Z,986.82
2024-02-13T09:06:14.170Z,986.76
2024-02-13T09:07:14.872Z,986.81
2024-02-13T09:08:14.112Z,986.84
2024-02-13T09:09:14.794Z,986.89
2024-02-13T09:10:14.345Z,986.93
2024-02-13T09:11:14.873Z,986.86
2024-02-13T09:12:14.053Z,986.94
2024-02-13T09:13:14.131Z,986.87
2024-02-13T09:14:14.053Z,986.88
2024-02-13T09:15:14.014Z,986.93
2024-02-13T09:16:14.343Z,986.95
2024-02-13T09:17:14.049Z,986.85
2024-02-13T09:18:14.106Z,986.90
2024-02-13T09:19:14.234Z,986.94
2024-02-13T09:21:13.986Z,986.80
2024-02-13T09:22:13.940Z,986.82
2024-02-13T09:23:13.952Z,986.84
2024-02-13T09:24:13.916Z,986.78
2024-02-13T09:25:13.918Z,986.74
2024-02-13T09:26:13.945Z,986.80
2024-02-13T09:27:13.884Z,986.79
2024-02-13T09:28:13.884Z,986.80
2024-02-13T09:29:13.874Z,986.82
2024-02-13T09:30:13.889Z,986.86
2024-02-13T09:31:13.860Z,986.79
2024-02-13T09:32:14.006Z,986.84
2024-02-13T09:33:13.920Z,986.79
2024-02-13T09:34:13.969Z,986.85
2024-02-13T09:35:13.868Z,986.81
2024-02-13T09:36:13.795Z,986.81
2024-02-13T09:37:13.813Z,986.82
2024-02-13T09:38:13.829Z,986.82
2024-02-13T09:39:13.767Z,986.78
2024-02-13T09:40:15.486Z,986.80
2024-02-13T09:41:13.801Z,986.83
2024-02-13T09:42:14.822Z,986.81
2024-02-13T09:43:13.732Z,986.85
2024-02-13T09:44:15.236Z,986.88
2024-02-13T09:45:13.705Z,986.96
2024-02-13T09:46:14.415Z,986.85
2024-02-13T09:47:13.743Z,986.96
2024-02-13T09:48:14.066Z,986.90
2024-02-13T09:49:13.833Z,986.83
2024-02-13T09:50:14.735Z,986.88
2024-02-13T09:51:13.634Z,986.81
2024-02-13T09:52:14.421Z,986.87
2024-02-13T09:53:13.677Z,986.93
2024-02-13T09:54:13.922Z,986.92
2024-02-13T09:55:13.598Z,986.97
2024-02-13T09:56:13.737Z,986.90
2024-02-13T09:57:13.644Z,986.96
2024-02-13T09:58:13.555Z,986.94
2024-02-13T09:59:13.566Z,986.95
2024-02-13T10:00:13.553Z,986.90
2024-02-13T10:01:13.569Z,986.87
2024-02-13T10:02:13.538Z,986.96
2024-02-13T10:03:13.741Z,986.99
2024-02-13T10:04:14.470Z,986.97
2024-02-13T10:05:14.039Z,987.06
2024-02-13T10:06:14.121Z,986.99
2024-02-13T10:07:14.469Z,986.95
2024-02-13T10:08:13.481Z,986.90
2024-02-13T10:09:13.502Z,986.92
2024-02-13T10:10:13.437Z,986.90
2024-02-13T10:11:13.933Z,986.90
2024-02-13T10:12:13.420Z,986.91
2024-02-13T10:13:13.445Z,986.87
2024-02-13T10:14:13.409Z,986.89
2024-02-13T10:15:13.378Z,986.92
2024-02-13T10:16:13.358Z,986.95
2024-02-13T10:17:13.421Z,986.92
2024-02-13T10:18:13.516Z,986.98
2024-02-13T10:19:13.373Z,986.90
2024-02-13T10:20:13.368Z,986.94
2024-02-13T10:21:13.302Z,986.96
2024-02-13T10:22:13.330Z,986.93
2024-02-13T10:23:13.438Z,986.94
2024-02-13T10:24:13.645Z,986.87
2024-02-13T10:25:13.348Z,986.90
2024-02-13T10:26:13.387Z,986.92
2024-02-13T10:27:13.267Z,986.91
2024-02-13T10:28:13.240Z,986.86
2024-02-13T10:29:13.304Z,986.88
2024-02-13T10:30:13.229Z,986.87
2024-02-13T10:31:13.190Z,986.89
2024-02-13T10:32:13.233Z,986.99
2024-02-13T10:33:13.292Z,986.92
2024-02-13T10:34:13.626Z,986.99
2024-02-13T10:35:13.262Z,986.90
2024-02-13T10:36:13.181Z,986.92
2024-02-13T10:37:15.767Z,986.94
2024-02-13T10:38:13.162Z,986.99
2024-02-13T10:39:13.132Z,987.02
2024-02-13T10:40:13.096Z,987.01
2024-02-13T10:41:13.167Z,986.94
2024-02-13T10:42:13.100Z,986.93
2024-02-13T10:43:13.091Z,986.84
2024-02-13T10:44:13.054Z,986.96
2024-02-13T10:45:13.083Z,986.90
2024-02-13T10:46:13.054Z,987.00
2024-02-13T10:47:13.030Z,987.02
2024-02-13T10:48:13.112Z,986.93
2024-02-13T10:49:13.063Z,986.99
2024-02-13T10:50:13.057Z,986.94
2024-02-13T10:51:12.987Z,986.95
2024-02-13T10:52:12.960Z,986.95
2024-02-13T10:53:12.955Z,986.93
2024-02-13T10:54:12.940Z,986.91
2024-02-13T10:55:13.638Z,987.03
2024-02-13T10:56:12.974Z,986.88
2024-02-13T10:57:13.689Z,986.90
2024-02-13T10:58:20.867Z,986.95
2024-02-13T10:59:14.988Z,986.92
2024-02-13T11:00:12.931Z,986.93
2024-02-13T11:01:13.808Z,986.99
2024-02-13T11:02:12.970Z,986.98
2024-02-13T11:03:13.014Z,987.01
2024-02-13T11:04:12.893Z,986.96
2024-02-13T11:05:13.933Z,987.03
2024-02-13T11:06:12.904Z,987.01
2024-02-13T11:07:13.562Z,987.15
2024-02-13T11:08:12.810Z,987.08
2024-02-13T11:09:13.912Z,987.00
2024-02-13T11:10:12.816Z,986.98
2024-02-13T11:11:12.802Z,987.09
2024-02-13T11:12:12.858Z,987.09
2024-02-13T11:13:12.761Z,987.04
2024-02-13T11:14:12.728Z,987.07
2024-02-13T11:15:12.788Z,987.12
2024-02-13T11:16:12.778Z,987.03
2024-02-13T11:17:12.713Z,986.89
2024-02-13T11:18:12.896Z,987.01
2024-02-13T11:19:12.739Z,986.95
2024-02-13T11:20:12.724Z,986.96
2024-02-13T11:21:12.715Z,986.97
2024-02-13T11:22:12.746Z,987.02
2024-02-13T11:23:12.639Z,986.92
2024-02-13T11:24:12.719Z,987.08
2024-02-13T11:25:12.883Z,986.97
2024-02-13T11:26:12.633Z,986.93
2024-02-13T11:27:20.515Z,986.93
2024-02-13T11:28:13.579Z,986.93
2024-02-13T11:29:12.858Z,986.93
2024-02-13T11:30:12.586Z,986.93
2024-02-13T11:31:12.572Z,986.97
2024-02-13T11:32:12.555Z,986.95
2024-02-13T11:33:12.776Z,987.03
2024-02-13T11:34:12.684Z,986.99
2024-02-13T11:35:12.752Z,987.01
2024-02-13T11:36:12.542Z,986.96
2024-02-13T11:37:12.485Z,986.86
2024-02-13T11:38:12.474Z,986.86
2024-02-13T11:39:12.485Z,986.85
2024-02-13T11:40:12.450Z,986.82
2024-02-13T11:41:12.479Z,986.82
2024-02-13T11:42:12.429Z,986.96
2024-02-13T11:43:12.415Z,986.90
2024-02-13T11:44:12.554Z,986.87
2024-02-13T11:45:12.402Z,986.87
2024-02-13T11:46:12.410Z,986.86
2024-02-13T11:47:12.414Z,986.78
2024-02-13T11:48:12.541Z,986.77
2024-02-13T11:49:12.741Z,986.76
2024-02-13T11:50:12.418Z,986.74
2024-02-13T11:51:12.472Z,986.73
2024-02-13T11:52:12.316Z,986.73
2024-02-13T11:53:12.336Z,986.69
2024-02-13T11:54:12.345Z,986.69
2024-02-13T11:55:12.303Z,986.70
2024-02-13T11:56:12.290Z,986.73
2024-02-13T11:57:12.273Z,986.69
2024-02-13T11:58:12.271Z,986.72
2024-02-13T11:59:12.392Z,986.75
2024-02-13T12:00:12.370Z,986.67
2024-02-13T12:01:12.546Z,986.68
2024-02-13T12:02:12.218Z,986.69
2024-02-13T12:03:12.260Z,986.70
2024-02-13T12:04:12.410Z,986.69
2024-02-13T12:05:12.234Z,986.71
2024-02-13T12:06:12.213Z,986.58
2024-02-13T12:07:12.267Z,986.64
2024-02-13T12:08:12.155Z,986.52
2024-02-13T12:09:12.148Z,986.54
2024-02-13T12:10:12.142Z,986.49
2024-02-13T12:11:12.158Z,986.53
2024-02-13T12:12:12.127Z,986.55
2024-02-13T12:13:12.100Z,986.55
2024-02-13T12:14:12.087Z,986.55
2024-02-13T12:15:12.299Z,986.49
2024-02-13T12:16:12.057Z,986.49
2024-02-13T12:17:12.080Z,986.53
2024-02-13T12:18:12.141Z,986.56
2024-02-13T12:19:12.167Z,986.43
2024-02-13T12:20:12.016Z,986.51
2024-02-13T12:21:12.024Z,986.56
2024-02-13T12:22:12.003Z,986.45
2024-02-13T12:23:12.032Z,986.55
2024-02-13T12:24:11.969Z,986.52
2024-02-13T12:25:11.974Z,986.45
2024-02-13T12:26:11.951Z,986.49
2024-02-13T12:27:11.967Z,986.55
2024-02-13T12:28:11.945Z,986.47
2024-02-13T12:29:11.941Z,986.47